AAL2260 KPHX-KLAX
Flight info
| Callsign | AAL2260 |
|---|---|
| Flight time | 1h 2m |
| Altitude | 32000 |
| Route | KEENS3 WLVRN DCT ESTWD HLYWD1 |
| Aircraft | B738/M-SDE2E3FGHIRWXY/LB1 |
Departure
| Time | 2026-05-04 08:31 |
|---|---|
| Airport | Phoenix Sky Harbor International Airport (KPHX) |
Arrival
| Time | 2026-05-04 09:34 |
|---|---|
| Airport | Los Angeles International Airport (KLAX) |
| Time | Latitude | Longitude | Altitude | Speed | Heading |
|---|---|---|---|---|---|
| 2026-05-04 08:11 | 33.43760 | -112.00121 | 1123 ft | 0 kts | 270° |
| 2026-05-04 08:20 | 33.43760 | -112.00102 | 1115 ft | 4 kts | 279° |
| 2026-05-04 08:20 | 33.43750 | -112.00078 | 1119 ft | 4 kts | 341° |
| 2026-05-04 08:20 | 33.43728 | -112.00075 | 1118 ft | 1 kts | 360° |
| 2026-05-04 08:20 | 33.43724 | -112.00075 | 1116 ft | 0 kts | 360° |
| 2026-05-04 08:24 | 33.43863 | -112.00075 | 1119 ft | 9 kts | 360° |
| 2026-05-04 08:24 | 33.43942 | -112.00075 | 1121 ft | 10 kts | 0° |
| 2026-05-04 08:24 | 33.43974 | -111.99996 | 1126 ft | 15 kts | 90° |
| 2026-05-04 08:24 | 33.43974 | -111.99981 | 1124 ft | 1 kts | 90° |
| 2026-05-04 08:25 | 33.43972 | -111.99906 | 1126 ft | 18 kts | 90° |
| 2026-05-04 08:25 | 33.43973 | -111.99753 | 1127 ft | 21 kts | 90° |
| 2026-05-04 08:26 | 33.43973 | -111.99597 | 1127 ft | 17 kts | 90° |
| 2026-05-04 08:27 | 33.44083 | -111.99270 | 1134 ft | 0 kts | 270° |
| 2026-05-04 08:28 | 33.44083 | -111.99271 | 1134 ft | 1 kts | 270° |
| 2026-05-04 08:29 | 33.44083 | -111.99369 | 1134 ft | 36 kts | 269° |
| 2026-05-04 08:29 | 33.44085 | -111.99965 | 1132 ft | 106 kts | 270° |
| 2026-05-04 08:29 | 33.44083 | -112.01087 | 1132 ft | 161 kts | 270° |
| 2026-05-04 08:31 | 33.41368 | -112.12100 | 4425 ft | 257 kts | 246° |
| 2026-05-04 08:33 | 33.40124 | -112.27174 | 9867 ft | 290 kts | 277° |
| 2026-05-04 08:33 | 33.40492 | -112.29578 | 10391 ft | 302 kts | 276° |
| 2026-05-04 08:35 | 33.43444 | -112.49370 | 14452 ft | 352 kts | 276° |
| 2026-05-04 08:35 | 33.43869 | -112.52260 | 15243 ft | 353 kts | 276° |
| 2026-05-04 08:35 | 33.44294 | -112.55161 | 15980 ft | 354 kts | 276° |
| 2026-05-04 08:35 | 33.44720 | -112.58072 | 16692 ft | 356 kts | 276° |
| 2026-05-04 08:37 | 33.45220 | -112.75846 | 20503 ft | 358 kts | 268° |
| 2026-05-04 08:37 | 33.45286 | -112.78836 | 21082 ft | 361 kts | 271° |
| 2026-05-04 08:37 | 33.45833 | -112.81800 | 21613 ft | 371 kts | 284° |
| 2026-05-04 08:38 | 33.46798 | -112.84678 | 22163 ft | 374 kts | 287° |
| 2026-05-04 08:38 | 33.47825 | -112.87554 | 22678 ft | 376 kts | 287° |
| 2026-05-04 08:38 | 33.48855 | -112.90406 | 23146 ft | 379 kts | 287° |
| 2026-05-04 08:40 | 33.56109 | -113.10962 | 25957 ft | 386 kts | 285° |
| 2026-05-04 08:40 | 33.57138 | -113.13920 | 26509 ft | 383 kts | 285° |
| 2026-05-04 08:40 | 33.58161 | -113.16852 | 27096 ft | 379 kts | 285° |
| 2026-05-04 08:41 | 33.59173 | -113.19754 | 27686 ft | 376 kts | 285° |
| 2026-05-04 08:41 | 33.60176 | -113.22638 | 28233 ft | 373 kts | 285° |
| 2026-05-04 08:41 | 33.61170 | -113.25502 | 28786 ft | 371 kts | 284° |
| 2026-05-04 08:41 | 33.62157 | -113.28349 | 29381 ft | 368 kts | 284° |
| 2026-05-04 08:42 | 33.63134 | -113.31170 | 29944 ft | 365 kts | 284° |
| 2026-05-04 08:42 | 33.64103 | -113.33971 | 30444 ft | 362 kts | 284° |
| 2026-05-04 08:42 | 33.65061 | -113.36741 | 30962 ft | 358 kts | 284° |
| 2026-05-04 08:42 | 33.66010 | -113.39488 | 31457 ft | 355 kts | 284° |
| 2026-05-04 08:43 | 33.66951 | -113.42217 | 31796 ft | 355 kts | 284° |
| 2026-05-04 08:43 | 33.67890 | -113.44948 | 32009 ft | 355 kts | 284° |
| 2026-05-04 08:43 | 33.68827 | -113.47674 | 32050 ft | 356 kts | 284° |
| 2026-05-04 08:44 | 33.70714 | -113.53165 | 32056 ft | 357 kts | 284° |
| 2026-05-04 08:46 | 33.77969 | -113.74353 | 31828 ft | 357 kts | 284° |
| 2026-05-04 08:46 | 33.79863 | -113.79895 | 31823 ft | 358 kts | 284° |
| 2026-05-04 08:47 | 33.81750 | -113.85451 | 31820 ft | 359 kts | 283° |
| 2026-05-04 08:47 | 33.83936 | -113.91917 | 31829 ft | 360 kts | 283° |
| 2026-05-04 08:48 | 33.85514 | -113.96591 | 31818 ft | 360 kts | 283° |
| 2026-05-04 08:48 | 33.87397 | -114.02172 | 31809 ft | 359 kts | 283° |
| 2026-05-04 08:49 | 33.89272 | -114.07741 | 31813 ft | 359 kts | 283° |
| 2026-05-04 08:50 | 33.93294 | -114.27666 | 31806 ft | 350 kts | 275° |
| 2026-05-04 08:51 | 33.94251 | -114.33416 | 31794 ft | 351 kts | 275° |
| 2026-05-04 08:51 | 33.95219 | -114.39178 | 31782 ft | 352 kts | 275° |
| 2026-05-04 08:52 | 33.96191 | -114.44953 | 31790 ft | 352 kts | 275° |
| 2026-05-04 08:52 | 33.97164 | -114.50749 | 31797 ft | 353 kts | 274° |
| 2026-05-04 08:54 | 34.01036 | -114.73989 | 31776 ft | 354 kts | 274° |
| 2026-05-04 08:55 | 34.01999 | -114.79809 | 31785 ft | 354 kts | 274° |
| 2026-05-04 08:55 | 34.02949 | -114.85577 | 31774 ft | 353 kts | 274° |
| 2026-05-04 09:01 | 34.12842 | -115.46602 | 31803 ft | 354 kts | 273° |
| 2026-05-04 09:01 | 34.13771 | -115.52440 | 31822 ft | 355 kts | 273° |
| 2026-05-04 09:02 | 34.14701 | -115.58296 | 31809 ft | 355 kts | 273° |
| 2026-05-04 09:02 | 34.15628 | -115.64148 | 31828 ft | 355 kts | 273° |
| 2026-05-04 09:03 | 34.16305 | -115.70002 | 31818 ft | 346 kts | 262° |
| 2026-05-04 09:03 | 34.15787 | -115.75745 | 31834 ft | 344 kts | 258° |
| 2026-05-04 09:04 | 34.15194 | -115.81471 | 31860 ft | 344 kts | 258° |
| 2026-05-04 09:04 | 34.14625 | -115.87202 | 31875 ft | 344 kts | 259° |
| 2026-05-04 09:05 | 34.14066 | -115.92934 | 31895 ft | 344 kts | 259° |
| 2026-05-04 09:05 | 34.13508 | -115.98645 | 31919 ft | 343 kts | 258° |
| 2026-05-04 09:06 | 34.12950 | -116.04346 | 31927 ft | 343 kts | 258° |
| 2026-05-04 09:07 | 34.10983 | -116.24294 | 31918 ft | 332 kts | 258° |
| 2026-05-04 09:08 | 34.10713 | -116.27018 | 31716 ft | 326 kts | 258° |
| 2026-05-04 09:08 | 34.10443 | -116.29713 | 31425 ft | 320 kts | 257° |
| 2026-05-04 09:08 | 34.10168 | -116.32367 | 30971 ft | 318 kts | 257° |
| 2026-05-04 09:08 | 34.09888 | -116.34996 | 30533 ft | 314 kts | 257° |
| 2026-05-04 09:09 | 34.09611 | -116.37590 | 30146 ft | 311 kts | 257° |
| 2026-05-04 09:09 | 34.09333 | -116.40162 | 29743 ft | 308 kts | 256° |
| 2026-05-04 09:09 | 34.09057 | -116.42716 | 29286 ft | 305 kts | 257° |
| 2026-05-04 09:09 | 34.08787 | -116.45232 | 28880 ft | 301 kts | 257° |
| 2026-05-04 09:10 | 34.08519 | -116.47717 | 28488 ft | 297 kts | 257° |
| 2026-05-04 09:10 | 34.08252 | -116.50177 | 28081 ft | 295 kts | 257° |
| 2026-05-04 09:10 | 34.07990 | -116.52617 | 27704 ft | 292 kts | 256° |
| 2026-05-04 09:10 | 34.07728 | -116.55037 | 27306 ft | 289 kts | 256° |
| 2026-05-04 09:11 | 34.07469 | -116.57429 | 26896 ft | 287 kts | 256° |
| 2026-05-04 09:11 | 34.07217 | -116.59808 | 26418 ft | 287 kts | 257° |
| 2026-05-04 09:11 | 34.06982 | -116.62255 | 25626 ft | 299 kts | 257° |
| 2026-05-04 09:11 | 34.06749 | -116.64777 | 25023 ft | 305 kts | 258° |
| 2026-05-04 09:12 | 34.06516 | -116.67316 | 24592 ft | 305 kts | 258° |
| 2026-05-04 09:12 | 34.06289 | -116.69838 | 24203 ft | 303 kts | 258° |
| 2026-05-04 09:14 | 34.04669 | -116.87202 | 21515 ft | 293 kts | 258° |
| 2026-05-04 09:14 | 34.04430 | -116.89637 | 21156 ft | 291 kts | 257° |
| 2026-05-04 09:14 | 34.04127 | -116.92047 | 20744 ft | 291 kts | 257° |
| 2026-05-04 09:14 | 34.03807 | -116.94425 | 20345 ft | 291 kts | 257° |
| 2026-05-04 09:15 | 34.03487 | -116.96828 | 19952 ft | 290 kts | 257° |
| 2026-05-04 09:15 | 34.03171 | -116.99228 | 19610 ft | 289 kts | 257° |
| 2026-05-04 09:15 | 34.02859 | -117.01618 | 19242 ft | 288 kts | 257° |
| 2026-05-04 09:15 | 34.02553 | -117.04005 | 18866 ft | 288 kts | 258° |
| 2026-05-04 09:17 | 34.00316 | -117.22896 | 15912 ft | 277 kts | 258° |
| 2026-05-04 09:18 | 34.00041 | -117.25193 | 15537 ft | 277 kts | 258° |
| 2026-05-04 09:18 | 33.99767 | -117.27476 | 15214 ft | 274 kts | 258° |
| 2026-05-04 09:18 | 33.99495 | -117.29744 | 14859 ft | 273 kts | 258° |
| 2026-05-04 09:18 | 33.99225 | -117.32000 | 14544 ft | 272 kts | 259° |
| 2026-05-04 09:19 | 33.98958 | -117.34267 | 14222 ft | 273 kts | 259° |
| 2026-05-04 09:19 | 33.98694 | -117.36526 | 13893 ft | 272 kts | 259° |
| 2026-05-04 09:19 | 33.98429 | -117.38785 | 13526 ft | 272 kts | 259° |
| 2026-05-04 09:19 | 33.98164 | -117.41035 | 13184 ft | 271 kts | 259° |
| 2026-05-04 09:20 | 33.97900 | -117.43278 | 12827 ft | 270 kts | 259° |
| 2026-05-04 09:20 | 33.97640 | -117.45482 | 12517 ft | 268 kts | 259° |
| 2026-05-04 09:20 | 33.97377 | -117.47698 | 12192 ft | 267 kts | 259° |
| 2026-05-04 09:20 | 33.97161 | -117.49921 | 11896 ft | 267 kts | 264° |
| 2026-05-04 09:21 | 33.97098 | -117.52173 | 11626 ft | 272 kts | 266° |
| 2026-05-04 09:21 | 33.97075 | -117.54472 | 11368 ft | 278 kts | 267° |
| 2026-05-04 09:21 | 33.97055 | -117.56817 | 11087 ft | 282 kts | 267° |
| 2026-05-04 09:21 | 33.97032 | -117.59193 | 10781 ft | 285 kts | 267° |
| 2026-05-04 09:22 | 33.97003 | -117.61584 | 10488 ft | 284 kts | 267° |
| 2026-05-04 09:22 | 33.96971 | -117.63947 | 10191 ft | 280 kts | 267° |
| 2026-05-04 09:22 | 33.96937 | -117.66267 | 10009 ft | 269 kts | 267° |
| 2026-05-04 09:22 | 33.96903 | -117.68465 | 9641 ft | 262 kts | 267° |
| 2026-05-04 09:23 | 33.96867 | -117.70611 | 9344 ft | 254 kts | 267° |
| 2026-05-04 09:23 | 33.96830 | -117.72736 | 8825 ft | 255 kts | 267° |
| 2026-05-04 09:23 | 33.96793 | -117.74845 | 8468 ft | 249 kts | 267° |
| 2026-05-04 09:23 | 33.96755 | -117.76891 | 8170 ft | 242 kts | 267° |
| 2026-05-04 09:25 | 33.96495 | -117.90646 | 6247 ft | 229 kts | 268° |
| 2026-05-04 09:25 | 33.96459 | -117.92556 | 6002 ft | 222 kts | 268° |
| 2026-05-04 09:26 | 33.96423 | -117.94374 | 5746 ft | 220 kts | 268° |
| 2026-05-04 09:26 | 33.96386 | -117.96224 | 5502 ft | 220 kts | 268° |
| 2026-05-04 09:26 | 33.96347 | -117.98070 | 5273 ft | 220 kts | 268° |
| 2026-05-04 09:26 | 33.96311 | -117.99904 | 5031 ft | 217 kts | 268° |
| 2026-05-04 09:27 | 33.96275 | -118.01704 | 4772 ft | 212 kts | 267° |
| 2026-05-04 09:27 | 33.96240 | -118.03453 | 4531 ft | 206 kts | 268° |
| 2026-05-04 09:27 | 33.96205 | -118.05171 | 4322 ft | 205 kts | 268° |
| 2026-05-04 09:27 | 33.96169 | -118.06887 | 4118 ft | 204 kts | 268° |
| 2026-05-04 09:28 | 33.96135 | -118.08556 | 4023 ft | 197 kts | 267° |
| 2026-05-04 09:28 | 33.96102 | -118.10172 | 3960 ft | 189 kts | 267° |
| 2026-05-04 09:28 | 33.96067 | -118.11764 | 3876 ft | 193 kts | 267° |
| 2026-05-04 09:28 | 33.96032 | -118.13394 | 3793 ft | 196 kts | 267° |
| 2026-05-04 09:29 | 33.95991 | -118.15035 | 3682 ft | 194 kts | 268° |
| 2026-05-04 09:29 | 33.95938 | -118.16603 | 3621 ft | 189 kts | 265° |
| 2026-05-04 09:29 | 33.95813 | -118.18209 | 3397 ft | 192 kts | 263° |
| 2026-05-04 09:29 | 33.95662 | -118.19746 | 3167 ft | 188 kts | 262° |
| 2026-05-04 09:30 | 33.95499 | -118.21312 | 2914 ft | 185 kts | 262° |
| 2026-05-04 09:30 | 33.95342 | -118.22817 | 2667 ft | 181 kts | 262° |
| 2026-05-04 09:30 | 33.95188 | -118.24289 | 2407 ft | 172 kts | 262° |
| 2026-05-04 09:30 | 33.95044 | -118.25671 | 2183 ft | 161 kts | 262° |
| 2026-05-04 09:31 | 33.94908 | -118.26977 | 1986 ft | 154 kts | 263° |
| 2026-05-04 09:31 | 33.94776 | -118.28246 | 1782 ft | 150 kts | 262° |
| 2026-05-04 09:31 | 33.94645 | -118.29501 | 1571 ft | 152 kts | 263° |
| 2026-05-04 09:31 | 33.94520 | -118.30714 | 1367 ft | 145 kts | 263° |
| 2026-05-04 09:32 | 33.94397 | -118.31900 | 1171 ft | 141 kts | 262° |
| 2026-05-04 09:32 | 33.94275 | -118.33084 | 984 ft | 143 kts | 263° |
| 2026-05-04 09:34 | 33.93533 | -118.40298 | 94 ft | 30 kts | 267° |
| 2026-05-04 09:34 | 33.93550 | -118.40494 | 96 ft | 14 kts | 283° |
| 2026-05-04 09:34 | 33.93584 | -118.40605 | 93 ft | 14 kts | 294° |
| 2026-05-04 09:34 | 33.93599 | -118.40678 | 95 ft | 13 kts | 275° |
| 2026-05-04 09:35 | 33.93594 | -118.40773 | 94 ft | 10 kts | 269° |
| 2026-05-04 09:35 | 33.93609 | -118.40851 | 96 ft | 10 kts | 289° |
| 2026-05-04 09:35 | 33.93658 | -118.40894 | 95 ft | 9 kts | 352° |
| 2026-05-04 09:35 | 33.93725 | -118.40905 | 93 ft | 10 kts | 353° |
| 2026-05-04 09:37 | 33.93888 | -118.40533 | 94 ft | 7 kts | 353° |
| 2026-05-04 09:37 | 33.93933 | -118.40540 | 93 ft | 6 kts | 352° |
| 2026-05-04 09:38 | 33.93977 | -118.40546 | 92 ft | 6 kts | 353° |
| 2026-05-04 09:38 | 33.94022 | -118.40552 | 94 ft | 7 kts | 353° |
| 2026-05-04 09:38 | 33.94067 | -118.40559 | 91 ft | 7 kts | 352° |
| 2026-05-04 09:38 | 33.94113 | -118.40566 | 94 ft | 7 kts | 353° |
| 2026-05-04 09:39 | 33.94150 | -118.40586 | 93 ft | 6 kts | 299° |
| 2026-05-04 09:39 | 33.94151 | -118.40624 | 95 ft | 2 kts | 263° |
| 2026-05-04 09:39 | 33.94150 | -118.40634 | 96 ft | 1 kts | 263° |
| 2026-05-04 09:39 | 33.94150 | -118.40637 | 95 ft | 0 kts | 263° |